EW9081 Weather Reports


time (UTC)temp
C
wind
direction
speed
KPH
gust
KPH
rain 1hr
cm
rain 24hr
cm
rain mn
cm
humidity
%
barometer
mb
20220627202411 30 248 3.2 9.7 0.00 0.00 0.00 42 1012.2
20220627201411 29 294 3.2 6.4 0.00 0.00 0.00 43 1012.3
20220627200410 29 38 1.6 4.8 0.00 0.00 0.00 43 1012.4
20220627195409 28 34 3.2 8.0 0.00 0.00 0.00 48 1012.4
20220627194409 28 55 1.6 4.8 0.00 0.00 0.00 47 1012.4
20220627193409 28 29 3.2 6.4 0.00 0.00 0.00 48 1012.5
20220627192409 28 30 1.6 6.4 0.00 0.00 0.00 52 1012.5
20220627191409 27 35 3.2 6.4 0.00 0.00 0.00 53 1012.5
20220627190409 27 22 1.6 6.4 0.00 0.00 0.00 52 1012.5
20220627185411 27 289 3.2 8.0 0.00 0.00 0.00 54 1012.6
20220627184410 26 277 3.2 8.0 0.00 0.00 0.00 52 1012.6
20220627183407 26 289 1.6 6.4 0.00 0.00 0.00 49 1012.8
20220627182409 26 271 1.6 6.4 0.00 0.00 0.00 50 1012.8
20220627181407 26 47 3.2 6.4 0.00 0.00 0.00 49 1012.9
20220627180407 26 12 1.6 6.4 0.00 0.00 0.00 50 1012.8
20220627175407 26 165 1.6 6.4 0.00 0.00 0.00 52 1012.9
20220627174409 26 126 1.6 6.4 0.00 0.00 0.00 47 1012.9
20220627173405 25 117 1.6 8.0 0.00 0.00 0.00 52 1013.0
20220627172405 25 169 1.6 8.0 0.00 0.00 0.00 53 1012.9
20220627171405 25 32 1.6 4.8 0.00 0.00 0.00 52 1012.9
20220627170405 25 34 1.6 4.8 0.00 0.00 0.00 47 1013.0
20220627165405 24 273 1.6 3.2 0.00 0.00 0.00 47 1013.0
20220627164404 23 272 1.6 4.8 0.00 0.00 0.00 50 1013.1
20220627163403 22 292 1.6 4.8 0.00 0.00 0.00 59 1013.3
20220627162403 22 292 1.6 4.8 0.00 0.00 0.00 57 1013.3
20220627161408 21 267 1.6 4.8 0.00 0.00 0.00 58 1013.2
20220627160402 21 238 1.6 6.4 0.00 0.00 0.00 58 1013.2
20220627155403 20 294 1.6 4.8 0.00 0.00 0.00 59 1013.2
20220627154407 20 294 1.6 6.4 0.00 0.00 0.00 62 1013.3
20220627153401 20 258 1.6 4.8 0.00 0.00 0.00 60 1013.4
20220627152402 19 24 1.6 4.8 0.00 0.00 0.00 64 1013.4
20220627151402 18 290 1.6 4.8 0.00 0.00 0.00 68 1013.5
20220627150401 17 267 1.6 3.2 0.00 0.00 0.00 70 1013.5
20220627145400 16 267 1.6 4.8 0.00 0.00 0.00 73 1013.5
20220627144401 15 250 1.6 4.8 0.00 0.00 0.00 78 1013.6
20220627143400 15 250 1.6 6.4 0.00 0.00 0.00 78 1013.7
20220627142400 14 232 1.6 4.8 0.00 0.00 0.00 79 1013.7
20220627141402 14 260 1.6 6.4 0.00 0.00 0.00 80 1013.7
20220627140400 13 275 1.6 4.8 0.00 0.00 0.00 81 1013.6
20220627135401 13 293 1.6 6.4 0.00 0.00 0.00 81 1013.7
20220627134401 12 264 0.0 3.2 0.00 0.00 0.00 85 1013.6
20220627133403 12 264 0.0 0.0 0.00 0.00 0.00 85 1013.6
20220627132402 12 264 0.0 3.2 0.00 0.00 0.00 86 1013.6
20220627131358 12 264 0.0 1.6 0.00 0.00 0.00 84 1013.5
20220627130359 12 264 0.0 1.6 0.00 0.00 0.00 83 1013.4
20220627125359 13 264 0.0 1.6 0.00 0.00 0.00 81 1013.4
20220627124359 13 264 0.0 1.6 0.00 0.00 0.00 78 1013.3
20220627123359 13 264 0.0 1.6 0.00 0.00 0.00 76 1013.1
20220627122359 14 264 0.0 3.2 0.00 0.00 0.00 74 1013.0
20220627121358 15 264 0.0 4.8 0.00 0.00 0.00 70 1012.9
20220627120359 15 271 1.6 4.8 0.00 0.00 0.00 68 1012.9
20220627115359 15 281 3.2 8.0 0.00 0.00 0.00 67 1012.9
20220627114358 15 280 3.2 12.9 0.00 0.00 0.00 67 1012.9
20220627113359 15 249 3.2 9.7 0.00 0.00 0.00 68 1012.9
20220627112401 15 273 4.8 12.9 0.00 0.00 0.00 68 1012.8
20220627111358 15 225 3.2 9.7 0.00 0.00 0.00 69 1012.8
20220627110359 15 254 3.2 9.7 0.00 0.00 0.00 68 1012.8
20220627105357 15 262 4.8 14.5 0.00 0.00 0.00 68 1012.8
20220627104358 15 279 3.2 11.3 0.00 0.00 0.00 68 1012.9
20220627103358 16 250 4.8 14.5 0.00 0.00 0.00 67 1012.8
20220627102358 16 284 3.2 9.7 0.00 0.00 0.00 67 1012.7
20220627101356 16 313 3.2 11.3 0.00 0.00 0.00 68 1012.8
20220627100354 16 219 3.2 8.0 0.00 0.00 0.00 69 1012.9
20220627095354 16 257 4.8 12.9 0.00 0.00 0.00 69 1012.8
20220627094356 15 251 3.2 12.9 0.00 0.00 0.00 70 1012.8
20220627093352 15 231 1.6 4.8 0.00 0.00 0.00 71 1013.0
20220627092352 16 182 0.0 3.2 0.00 0.00 0.00 71 1013.0
20220627091350 16 181 1.6 4.8 0.00 0.00 0.00 68 1013.1
20220627090352 16 231 1.6 6.4 0.00 0.00 0.00 65 1013.1
20220627085344 16 249 4.8 17.7 0.00 0.00 0.00 65 1013.0
20220627084344 16 227 6.4 17.7 0.00 0.00 0.00 66 1012.9
20220627083346 17 238 6.4 19.3 0.00 0.00 0.00 66 1012.9
20220627082344 17 260 6.4 16.1 0.00 0.00 0.00 67 1012.9
20220627081344 17 260 8.0 16.1 0.00 0.00 0.00 68 1012.8
20220627080342 16 210 6.4 14.5 0.00 0.00 0.00 69 1012.8
20220627075342 16 240 4.8 14.5 0.00 0.00 0.00 70 1012.7
20220627074340 16 216 4.8 12.9 0.00 0.00 0.00 70 1012.7
20220627073341 16 300 3.2 12.9 0.00 0.00 0.00 69 1012.7
20220627072340 17 235 4.8 14.5 0.00 0.00 0.00 69 1012.7
20220627071340 17 198 4.8 17.7 0.00 0.00 0.00 69 1012.8
20220627070340 17 213 8.0 17.7 0.00 0.00 0.00 69 1012.7
20220627065338 17 241 6.4 19.3 0.00 0.00 0.00 69 1012.7
20220627064336 17 279 6.4 16.1 0.00 0.00 0.00 69 1012.6
20220627063337 17 229 6.4 16.1 0.00 0.00 0.00 68 1012.6
20220627062334 17 257 6.4 16.1 0.00 0.00 0.00 68 1012.6
20220627061334 18 262 6.4 17.7 0.00 0.00 0.00 67 1012.5
20220627060334 18 254 6.4 14.5 0.00 0.00 0.00 67 1012.5
20220627055335 18 273 4.8 20.9 0.00 0.00 0.00 66 1012.4
20220627054334 18 275 6.4 16.1 0.00 0.00 0.00 65 1012.5
20220627053334 18 222 6.4 17.7 0.00 0.00 0.00 65 1012.5
20220627052335 19 276 4.8 14.5 0.00 0.00 0.00 64 1012.3
20220627051336 19 214 6.4 17.7 0.00 0.00 0.00 64 1012.3
20220627050334 19 257 4.8 17.7 0.00 0.00 0.00 63 1012.3
20220627045334 20 223 3.2 12.9 0.00 0.00 0.00 62 1012.1
20220627044335 20 238 4.8 14.5 0.00 0.00 0.00 60 1011.9
20220627043337 20 230 4.8 16.1 0.00 0.00 0.00 59 1012.0
20220627042334 21 307 4.8 16.1 0.00 0.00 0.00 57 1012.0
20220627041332 21 207 6.4 22.5 0.00 0.00 0.00 55 1011.8
20220627040332 22 227 4.8 22.5 0.00 0.00 0.00 52 1011.8
20220627035332 22 283 6.4 16.1 0.00 0.00 0.00 50 1011.7
20220627034336 23 212 6.4 20.9 0.00 0.00 0.00 48 1011.8
20220627033332 23 267 6.4 19.3 0.00 0.00 0.00 47 1011.8
20220627032330 24 226 8.0 17.7 0.00 0.00 0.00 47 1011.7
20220627031330 25 214 6.4 16.1 0.00 0.00 0.00 46 1011.6
20220627030332 25 273 4.8 12.9 0.00 0.00 0.00 46 1011.5
20220627025331 26 264 8.0 17.7 0.00 0.00 0.00 45 1011.4
20220627024330 26 212 8.0 19.3 0.00 0.00 0.00 43 1011.3
20220627023328 27 240 8.0 19.3 0.00 0.00 0.00 42 1011.2
20220627022329 27 248 6.4 16.1 0.00 0.00 0.00 42 1011.1
20220627021328 28 221 6.4 17.7 0.00 0.00 0.00 43 1011.0
20220627020328 28 273 6.4 16.1 0.00 0.00 0.00 42 1010.9
20220627015330 29 232 6.4 16.1 0.00 0.00 0.00 41 1010.9
20220627014326 30 282 6.4 14.5 0.00 0.00 0.00 44 1010.8
20220627013326 31 304 4.8 14.5 0.00 0.00 0.00 40 1010.8
20220627012325 32 254 4.8 14.5 0.00 0.00 0.00 41 1010.7
20220627011326 34 244 4.8 16.1 0.00 0.00 0.00 35 1010.6
20220627010323 36 150 0.0 1.6 0.00 0.00 0.00 33 1010.6
20220627005322 36 150 0.0 1.6 0.00 0.00 0.00 30 1010.5
20220627004319 36 150 0.0 3.2 0.00 0.00 0.00 31 1010.5
20220627003318 35 150 1.6 4.8 0.00 0.00 0.00 28 1010.5
20220627002317 35 20 0.0 3.2 0.00 0.00 0.00 32 1010.5
20220627001317 35 17 1.6 6.4 0.00 0.00 0.00 26 1010.6
20220627000319 35 63 1.6 4.8 0.00 0.00 0.00 32 1010.6
20220626235318 35 55 1.6 4.8 0.00 0.00 0.00 31 1010.8
20220626234315 35 50 1.6 8.0 0.00 0.00 0.00 31 1010.8
20220626233317 35 127 1.6 4.8 0.00 0.00 0.00 27 1010.9
20220626232315 35 24 1.6 4.8 0.00 0.00 0.00 29 1010.9
20220626231316 35 229 1.6 4.8 0.00 0.00 0.00 33 1011.0
20220626230316 35 113 1.6 8.0 0.00 0.00 0.00 30 1011.1
20220626225316 35 217 1.6 4.8 0.00 0.00 0.00 27 1011.1
20220626224316 35 158 1.6 4.8 0.00 0.00 0.00 34 1011.1
20220626223316 34 134 1.6 8.0 0.00 0.00 0.00 31 1011.1
20220626222316 34 109 1.6 6.4 0.00 0.00 0.00 33 1011.2
20220626221316 34 183 1.6 4.8 0.00 0.00 0.00 33 1011.3
20220626220318 33 328 1.6 4.8 0.00 0.00 0.00 36 1011.3
20220626215315 33 268 1.6 4.8 0.00 0.00 0.00 35 1011.3
20220626214316 33 168 1.6 6.4 0.00 0.00 0.00 33 1011.5
20220626213315 33 32 1.6 4.8 0.00 0.00 0.00 36 1011.5
20220626212315 33 267 1.6 4.8 0.00 0.00 0.00 36 1011.6
20220626211315 32 174 3.2 6.4 0.00 0.00 0.00 36 1011.7
20220626210316 32 179 3.2 9.7 0.00 0.00 0.00 40 1011.7
20220626205315 32 26 3.2 9.7 0.00 0.00 0.00 42 1011.8
20220626204315 31 215 1.6 6.4 0.00 0.00 0.00 33 1011.9
20220626203316 31 45 4.8 11.3 0.00 0.00 0.00 35 1011.9